createdAt,value
2023-03-13T06:19:54.973Z,18.99
2023-03-13T06:29:54.954Z,23.03
2023-03-13T06:39:55.060Z,21.25
2023-03-13T06:49:55.131Z,19.75
2023-03-13T06:59:55.113Z,21.26
2023-03-13T07:09:55.152Z,21.34
2023-03-13T07:19:55.135Z,19.04
2023-03-13T07:29:55.085Z,21.10
2023-03-13T07:39:55.156Z,24.06
2023-03-13T07:49:55.101Z,23.59
2023-03-13T07:59:55.104Z,23.73
2023-03-13T08:09:55.136Z,25.00
2023-03-13T08:19:55.098Z,26.58
2023-03-13T08:29:55.173Z,26.47
2023-03-13T08:39:55.350Z,25.85
2023-03-13T08:49:55.415Z,22.35
2023-03-13T08:59:55.375Z,21.58
2023-03-13T09:09:55.124Z,20.98
2023-03-13T09:20:00.621Z,21.45
2023-03-13T09:29:55.377Z,19.68
2023-03-13T09:39:55.225Z,22.21
2023-03-13T09:49:55.413Z,19.34
2023-03-13T09:59:55.163Z,21.86
2023-03-13T10:09:55.311Z,13.46
2023-03-13T10:19:55.392Z,0.00
2023-03-13T10:29:55.357Z,0.00
2023-03-13T10:39:55.201Z,0.00
2023-03-13T10:49:55.233Z,0.00
2023-03-13T10:59:55.227Z,0.00
2023-03-13T11:09:55.191Z,0.00
2023-03-13T11:19:55.060Z,0.00
2023-03-13T11:29:55.233Z,0.00
2023-03-13T11:39:55.298Z,0.00
2023-03-13T11:49:55.147Z,0.00
2023-03-13T11:59:55.428Z,0.00
2023-03-13T12:09:55.292Z,0.00
2023-03-13T12:19:55.261Z,0.00
2023-03-13T12:29:55.201Z,0.00
2023-03-13T12:39:55.120Z,0.00
2023-03-13T12:49:55.159Z,0.00
2023-03-13T12:59:55.426Z,0.00
2023-03-13T13:09:55.169Z,0.00
2023-03-13T13:19:55.246Z,0.00
2023-03-13T13:29:55.225Z,0.00
2023-03-13T13:39:55.072Z,0.00
2023-03-13T13:49:55.300Z,0.00
2023-03-13T13:59:55.299Z,0.00
2023-03-13T14:09:55.159Z,0.00
2023-03-13T14:19:55.237Z,0.00
2023-03-13T14:29:55.096Z,0.00
2023-03-13T14:39:55.377Z,0.00
2023-03-13T14:49:55.182Z,0.00
2023-03-13T14:59:55.183Z,0.00
2023-03-13T15:09:55.097Z,0.00
2023-03-13T15:19:55.238Z,0.00
2023-03-13T15:29:55.394Z,0.00
2023-03-13T15:39:55.250Z,0.00
2023-03-13T15:49:55.222Z,0.00
2023-03-13T15:59:55.385Z,0.00
2023-03-13T16:09:55.250Z,0.00
2023-03-13T16:19:55.471Z,0.00
2023-03-13T16:29:55.445Z,0.00
2023-03-13T16:39:55.467Z,0.00
2023-03-13T16:49:55.617Z,0.00
2023-03-13T16:59:55.575Z,0.00
2023-03-13T17:09:55.522Z,0.00
2023-03-13T17:19:56.604Z,0.00
2023-03-13T17:29:55.615Z,0.00
2023-03-13T17:39:55.378Z,0.00
2023-03-13T17:49:55.524Z,0.00
2023-03-13T17:59:55.476Z,0.00
2023-03-13T18:09:55.417Z,0.00
2023-03-13T18:19:55.455Z,0.00
2023-03-13T18:29:55.657Z,1.28
2023-03-13T18:39:55.377Z,20.49
2023-03-13T18:49:55.559Z,22.00
2023-03-13T18:59:55.439Z,18.98
2023-03-13T19:09:55.515Z,19.89
2023-03-13T19:19:55.503Z,17.10
